Terminal Aerodrome Forecast
Issued by NWS

Current Version | Previous Version | Graphics & Text | Print | Product List | Glossary On
Versions: 1 2 3 4 5 6 7 8 9 10 11 12 13 14 15 16 17 18 19 20 21 22 23 24 25 26
000
FTUS41 KRLX 020913 AAB
TAFCKB
TAF AMD
KCKB 020913Z 0209/0306 22006KT 6SM SHRA BKN050 OVC070
     FM021000 VRB03KT 3SM BR BKN050
     FM021300 21006KT 5SM BR BKN015
     FM021400 23011G18KT P6SM BKN025
     FM021800 25009KT P6SM BKN035=

USA.gov is the U.S. government's official web portal to all federal, state and local government web resources and services.